Wetterdaten: Woche 08.01.18 - 14.01.18 (KW2)
Datum Zeit Temp. A. Pool Temp. Feuchte A. Luftdruck Regen Wind Richtung Sonnenschein ET UV Solar Taupunkt Windchill Windben Empfang
08.01.2018 00:00 5,4 C 4,4 C 94 % 1022,5 hPa 0,0 l/m 20,3 km/h (4 Bft) O-NO 0,00 h 0,025 mm 0,0 UV-I 0 W/m 4,5 C -2,7 C 26,4 km/h (4 Bft) 96,67 %
08.01.2018 01:00 5,1 C 4,4 C 95 % 1022,5 hPa 0,0 l/m 23,3 km/h (4 Bft) O-NO 0,00 h 0,000 mm 0,0 UV-I 0 W/m 4,4 C -4,1 C 31,5 km/h (5 Bft) 97,61 %
08.01.2018 02:00 4,9 C 4,4 C 96 % 1022,7 hPa 0,0 l/m 22,7 km/h (4 Bft) O-NO 0,00 h 0,000 mm 0,0 UV-I 0 W/m 4,2 C -4,2 C 29,9 km/h (5 Bft) 97,32 %
08.01.2018 03:00 4,8 C 4,4 C 96 % 1022,7 hPa 0,0 l/m 18,8 km/h (3 Bft) O-NO 0,00 h 0,000 mm 0,0 UV-I 0 W/m 4,2 C -2,9 C 25,2 km/h (4 Bft) 96,45 %
08.01.2018 04:00 4,6 C 4,4 C 96 % 1023,0 hPa 0,0 l/m 19,8 km/h (3 Bft) O-NO 0,00 h 0,000 mm 0,0 UV-I 0 W/m 4,1 C -3,5 C 26,7 km/h (4 Bft) 97,03 %
08.01.2018 05:00 4,5 C 4,4 C 96 % 1023,3 hPa 0,0 l/m 19,3 km/h (3 Bft) O-NO 0,00 h 0,000 mm 0,0 UV-I 0 W/m 4,0 C -3,4 C 25,3 km/h (4 Bft) 97,68 %
08.01.2018 06:00 4,6 C 4,4 C 97 % 1023,6 hPa 0,0 l/m 16,6 km/h (3 Bft) O-NO 0,00 h 0,000 mm 0,0 UV-I 0 W/m 4,1 C -2,2 C 21,9 km/h (4 Bft) 97,39 %
08.01.2018 07:00 4,6 C 4,4 C 97 % 1024,0 hPa 0,0 l/m 14,6 km/h (3 Bft) O-NO 0,00 h 0,000 mm 0,0 UV-I 5 W/m 4,1 C -1,1 C 19,9 km/h (4 Bft) 96,74 %
08.01.2018 08:00 4,6 C 4,4 C 96 % 1024,3 hPa 0,0 l/m 14,6 km/h (3 Bft) O-NO 0,00 h 0,000 mm 0,0 UV-I 11 W/m 4,0 C -1,1 C 19,5 km/h (3 Bft) 97,10 %
08.01.2018 09:00 4,7 C 4,4 C 97 % 1024,5 hPa 0,0 l/m 17,6 km/h (3 Bft) O-NO 0,00 h 0,000 mm 0,0 UV-I 27 W/m 4,2 C -2,5 C 22,6 km/h (4 Bft) 96,82 %
08.01.2018 10:00 4,9 C 4,4 C 96 % 1024,4 hPa 0,0 l/m 18,6 km/h (3 Bft) O-NO 0,00 h 0,025 mm 0,0 UV-I 41 W/m 4,3 C -2,6 C 24,7 km/h (4 Bft) 97,82 %
08.01.2018 11:00 5,0 C 4,4 C 95 % 1024,1 hPa 0,0 l/m 20,1 km/h (4 Bft) O-NO 0,00 h 0,025 mm 0,0 UV-I 76 W/m 4,2 C -3,1 C 26,7 km/h (4 Bft) 96,38 %
08.01.2018 12:00 5,1 C 4,4 C 94 % 1023,4 hPa 0,0 l/m 21,3 km/h (4 Bft) O-NO 0,00 h 0,051 mm 0,0 UV-I 76 W/m 4,3 C -3,4 C 28,4 km/h (4 Bft) 97,83 %
08.01.2018 13:00 5,3 C 4,4 C 93 % 1023,0 hPa 0,0 l/m 20,2 km/h (4 Bft) O-NO 0,00 h 0,051 mm 0,0 UV-I 48 W/m 4,3 C -2,8 C 26,0 km/h (4 Bft) 97,03 %
08.01.2018 14:00 5,2 C 4,4 C 93 % 1022,7 hPa 0,0 l/m 21,3 km/h (4 Bft) O-NO 0,00 h 0,025 mm 0,0 UV-I 25 W/m 4,2 C -3,3 C 28,5 km/h (4 Bft) 97,61 %
08.01.2018 15:00 4,9 C 4,4 C 94 % 1022,8 hPa 0,0 l/m 21,6 km/h (4 Bft) O-NO 0,00 h 0,025 mm 0,0 UV-I 13 W/m 4,0 C -3,8 C 29,1 km/h (5 Bft) 96,59 %
08.01.2018 16:00 4,7 C 4,4 C 95 % 1023,1 hPa 0,0 l/m 23,2 km/h (4 Bft) O-NO 0,00 h 0,025 mm 0,0 UV-I 5 W/m 3,9 C -4,6 C 31,7 km/h (5 Bft) 98,11 %
08.01.2018 17:00 4,5 C 4,4 C 95 % 1023,2 hPa 0,0 l/m 24,8 km/h (4 Bft) O-NO 0,00 h 0,025 mm 0,0 UV-I 0 W/m 3,8 C -5,4 C 34,3 km/h (5 Bft) 96,45 %
08.01.2018 18:00 4,3 C 4,4 C 95 % 1023,4 hPa 0,0 l/m 23,6 km/h (4 Bft) O-NO 0,00 h 0,000 mm 0,0 UV-I 0 W/m 3,6 C -5,3 C 31,7 km/h (5 Bft) 97,61 %
08.01.2018 19:00 4,2 C 4,4 C 95 % 1023,3 hPa 0,0 l/m 23,4 km/h (4 Bft) O-NO 0,00 h 0,000 mm 0,0 UV-I 0 W/m 3,5 C -5,4 C 31,7 km/h (5 Bft) 96,01 %
08.01.2018 20:00 3,9 C 4,4 C 96 % 1023,1 hPa 0,0 l/m 22,3 km/h (4 Bft) O-NO 0,00 h 0,000 mm 0,0 UV-I 0 W/m 3,3 C -5,4 C 30,0 km/h (5 Bft) 98,19 %
08.01.2018 21:00 3,8 C 4,4 C 96 % 1022,6 hPa 0,0 l/m 22,7 km/h (4 Bft) O-NO 0,00 h 0,000 mm 0,0 UV-I 0 W/m 3,2 C -5,7 C 30,2 km/h (5 Bft) 96,16 %
08.01.2018 22:00 3,7 C 4,4 C 96 % 1022,4 hPa 0,0 l/m 22,1 km/h (4 Bft) O-NO 0,00 h 0,000 mm 0,0 UV-I 0 W/m 3,2 C -5,5 C 29,6 km/h (5 Bft) 92,68 %
08.01.2018 23:00 3,8 C 4,4 C 97 % 1021,9 hPa 0,0 l/m 24,7 km/h (4 Bft) O-NO 0,00 h 0,000 mm 0,0 UV-I 0 W/m 3,4 C -6,4 C 32,7 km/h (5 Bft) 96,49 %
09.01.2018 00:00 3,8 C 4,4 C 97 % 1021,3 hPa 0,0 l/m 27,1 km/h (4 Bft) O-NO 0,00 h 0,000 mm 0,0 UV-I 0 W/m 3,3 C -7,2 C 35,9 km/h (5 Bft) 90,83 %
09.01.2018 01:00 3,9 C 4,4 C 97 % 1020,4 hPa 0,0 l/m 24,7 km/h (4 Bft) O-NO 0,00 h 0,000 mm 0,0 UV-I 0 W/m 3,5 C -6,3 C 34,1 km/h (5 Bft) 96,99 %
09.01.2018 02:00 4,4 C 4,4 C 96 % 1019,6 hPa 0,0 l/m 22,8 km/h (4 Bft) O-NO 0,00 h 0,000 mm 0,0 UV-I 0 W/m 3,8 C -5,0 C 31,3 km/h (5 Bft) 98,83 %
09.01.2018 03:00 4,4 C 4,4 C 96 % 1019,1 hPa 0,0 l/m 14,4 km/h (3 Bft) O-NO 0,00 h 0,000 mm 0,0 UV-I 0 W/m 3,9 C -1,2 C 21,1 km/h (4 Bft) 98,51 %
09.01.2018 04:00 4,3 C 4,4 C 96 % 1018,3 hPa 0,0 l/m 11,7 km/h (2 Bft) NO 0,00 h 0,000 mm 0,0 UV-I 0 W/m 3,7 C 0,3 C 17,2 km/h (3 Bft) 98,21 %
09.01.2018 05:00 5,8 C 4,4 C 92 % 1017,6 hPa 0,0 l/m 15,8 km/h (3 Bft) O-NO 0,00 h 0,000 mm 0,0 UV-I 0 W/m 4,6 C -0,1 C 23,5 km/h (4 Bft) 96,44 %
09.01.2018 06:00 6,6 C 4,4 C 89 % 1016,6 hPa 0,0 l/m 27,3 km/h (4 Bft) O-NO 0,00 h 0,025 mm 0,0 UV-I 0 W/m 5,0 C -3,3 C 38,8 km/h (5 Bft) 98,54 %
09.01.2018 07:00 6,8 C 4,4 C 89 % 1015,7 hPa 0,0 l/m 27,7 km/h (4 Bft) O-NO 0,00 h 0,026 mm 0,0 UV-I 6 W/m 5,1 C -3,2 C 39,7 km/h (6 Bft) 98,47 %
09.01.2018 08:00 7,4 C 4,4 C 87 % 1015,3 hPa 0,0 l/m 26,0 km/h (4 Bft) O-NO 0,13 h 0,025 mm 0,0 UV-I 28 W/m 5,5 C -1,9 C 35,9 km/h (5 Bft) 99,12 %
09.01.2018 09:00 8,5 C 4,4 C 83 % 1015,4 hPa 0,0 l/m 17,7 km/h (3 Bft) O-NO 0,00 h 0,051 mm 0,0 UV-I 63 W/m 5,8 C 2,3 C 25,3 km/h (4 Bft) 96,87 %
09.01.2018 10:00 9,6 C 4,4 C 81 % 1015,5 hPa 0,0 l/m 17,7 km/h (3 Bft) O-NO 0,60 h 0,051 mm 0,0 UV-I 197 W/m 6,4 C 3,7 C 25,4 km/h (4 Bft) 97,08 %
09.01.2018 11:00 10,3 C 4,4 C 77 % 1015,0 hPa 0,0 l/m 21,2 km/h (4 Bft) O-NO 0,43 h 0,127 mm 0,3 UV-I 183 W/m 6,5 C 3,4 C 32,1 km/h (5 Bft) 98,50 %
09.01.2018 12:00 10,7 C 4,4 C 76 % 1014,4 hPa 0,0 l/m 23,7 km/h (4 Bft) O-NO 1,00 h 0,127 mm 0,5 UV-I 280 W/m 6,6 C 3,1 C 33,4 km/h (5 Bft) 98,71 %
09.01.2018 13:00 11,5 C 4,4 C 73 % 1013,6 hPa 0,0 l/m 22,6 km/h (4 Bft) O-NO 0,97 h 0,178 mm 0,5 UV-I 274 W/m 6,9 C 4,6 C 32,2 km/h (5 Bft) 98,55 %
09.01.2018 14:00 10,6 C 4,4 C 77 % 1013,4 hPa 0,0 l/m 19,1 km/h (3 Bft) O-NO 0,00 h 0,177 mm 0,0 UV-I 42 W/m 6,7 C 4,4 C 26,4 km/h (4 Bft) 97,71 %
09.01.2018 15:00 9,9 C 4,4 C 79 % 1013,6 hPa 0,0 l/m 17,0 km/h (3 Bft) O-NO 0,00 h 0,077 mm 0,0 UV-I 33 W/m 6,5 C 4,4 C 24,2 km/h (4 Bft) 96,71 %
09.01.2018 16:00 9,0 C 4,4 C 83 % 1013,7 hPa 0,0 l/m 10,5 km/h (2 Bft) O-NO 0,00 h 0,050 mm 0,0 UV-I 8 W/m 6,3 C 6,1 C 16,1 km/h (3 Bft) 98,08 %
09.01.2018 17:00 8,0 C 4,4 C 86 % 1013,6 hPa 0,0 l/m 11,6 km/h (2 Bft) O-NO 0,00 h 0,026 mm 0,0 UV-I 0 W/m 5,9 C 4,6 C 17,0 km/h (3 Bft) 99,03 %
09.01.2018 18:00 7,3 C 4,4 C 89 % 1013,6 hPa 0,0 l/m 10,9 km/h (2 Bft) NO 0,00 h 0,025 mm 0,0 UV-I 0 W/m 5,5 C 4,1 C 15,2 km/h (3 Bft) 98,27 %
09.01.2018 19:00 6,8 C 4,4 C 90 % 1013,7 hPa 0,0 l/m 10,6 km/h (2 Bft) NO 0,00 h 0,026 mm 0,0 UV-I 0 W/m 5,3 C 3,5 C 15,3 km/h (3 Bft) 96,79 %
09.01.2018 20:00 6,1 C 4,4 C 92 % 1013,7 hPa 0,0 l/m 3,7 km/h (1 Bft) N-NO 0,00 h 0,000 mm 0,0 UV-I 0 W/m 4,9 C 5,9 C 6,1 km/h (2 Bft) 96,20 %
09.01.2018 21:00 6,2 C 4,4 C 91 % 1013,7 hPa 0,0 l/m 8,5 km/h (2 Bft) O-NO 0,00 h 0,000 mm 0,0 UV-I 0 W/m 4,9 C 3,8 C 12,0 km/h (2 Bft) 98,88 %
09.01.2018 22:00 6,0 C 4,4 C 91 % 1013,5 hPa 0,0 l/m 7,8 km/h (2 Bft) O-NO 0,00 h 0,000 mm 0,0 UV-I 0 W/m 4,7 C 4,5 C 11,3 km/h (2 Bft) 98,59 %
09.01.2018 23:00 5,5 C 4,4 C 92 % 1013,4 hPa 0,0 l/m 3,3 km/h (1 Bft) O-SO 0,00 h 0,000 mm 0,0 UV-I 0 W/m 4,4 C 5,5 C 6,0 km/h (2 Bft) 96,03 %
10.01.2018 00:00 5,0 C 4,4 C 93 % 1012,8 hPa 0,0 l/m 2,6 km/h (1 Bft) NO 0,00 h 0,000 mm 0,0 UV-I 0 W/m 4,0 C 5,0 C 4,1 km/h (1 Bft) 98,74 %
10.01.2018 01:00 4,8 C 4,4 C 94 % 1013,0 hPa 0,0 l/m 1,5 km/h (1 Bft) NO 0,00 h 0,000 mm 0,0 UV-I 0 W/m 3,9 C 4,8 C 2,9 km/h (1 Bft) 98,12 %
10.01.2018 02:00 4,2 C 4,4 C 95 % 1013,0 hPa 0,0 l/m 2,7 km/h (1 Bft) NO 0,00 h 0,000 mm 0,0 UV-I 0 W/m 3,5 C 4,2 C 4,2 km/h (1 Bft) 98,78 %
10.01.2018 03:00 3,8 C 4,4 C 96 % 1013,2 hPa 0,0 l/m 2,2 km/h (1 Bft) NO 0,00 h 0,000 mm 0,0 UV-I 0 W/m 3,2 C 3,8 C 3,5 km/h (1 Bft) 96,04 %
10.01.2018 04:00 3,5 C 4,4 C 96 % 1012,7 hPa 0,0 l/m 2,5 km/h (1 Bft) S-SW 0,00 h 0,000 mm 0,0 UV-I 0 W/m 2,9 C 3,5 C 4,0 km/h (1 Bft) 99,05 %
10.01.2018 05:00 3,5 C 4,4 C 97 % 1012,6 hPa 0,0 l/m 3,3 km/h (1 Bft) S-SW 0,00 h 0,000 mm 0,0 UV-I 0 W/m 3,0 C 3,5 C 5,7 km/h (1 Bft) 98,00 %
10.01.2018 06:00 3,5 C 4,4 C 97 % 1012,5 hPa 0,0 l/m 2,3 km/h (1 Bft) W-SW 0,00 h 0,000 mm 0,0 UV-I 0 W/m 3,0 C 3,5 C 3,7 km/h (1 Bft) 98,92 %
10.01.2018 07:00 3,6 C 4,4 C 97 % 1012,6 hPa 0,0 l/m 2,5 km/h (1 Bft) S 0,00 h 0,000 mm 0,0 UV-I 5 W/m 3,2 C 3,6 C 4,4 km/h (1 Bft) 96,09 %
10.01.2018 08:00 3,6 C 4,4 C 97 % 1012,4 hPa 0,0 l/m 1,6 km/h (1 Bft) S-SW 0,00 h 0,000 mm 0,0 UV-I 28 W/m 3,2 C 3,6 C 2,9 km/h (1 Bft) 99,37 %
10.01.2018 09:00 4,1 C 4,4 C 96 % 1012,9 hPa 0,0 l/m 1,0 km/h (0 Bft) SO 0,00 h 0,000 mm 0,0 UV-I 55 W/m 3,6 C 4,1 C 2,3 km/h (1 Bft) 98,20 %
10.01.2018 10:00 4,5 C 4,6 C 96 % 1013,3 hPa 0,0 l/m 0,4 km/h (0 Bft) SO 0,00 h 0,025 mm 0,0 UV-I 50 W/m 3,9 C 4,5 C 1,3 km/h (1 Bft) 99,42 %
10.01.2018 11:00 5,3 C 4,8 C 95 % 1012,8 hPa 0,0 l/m 0,0 km/h (0 Bft) N 0,23 h 0,026 mm 0,4 UV-I 138 W/m 4,5 C 5,3 C 0,1 km/h (0 Bft) 95,74 %
10.01.2018 12:00 6,9 C 5,0 C 87 % 1012,1 hPa 0,0 l/m 0,9 km/h (0 Bft) NW 1,00 h 0,051 mm 0,5 UV-I 354 W/m 4,9 C 6,9 C 2,6 km/h (1 Bft) 97,06 %
10.01.2018 13:00 7,5 C 5,0 C 84 % 1011,5 hPa 0,0 l/m 2,0 km/h (1 Bft) N-NW 1,00 h 0,152 mm 0,5 UV-I 296 W/m 5,0 C 7,5 C 4,7 km/h (1 Bft) 96,60 %
10.01.2018 14:00 7,3 C 5,0 C 86 % 1011,4 hPa 0,0 l/m 5,5 km/h (1 Bft) NO 0,83 h 0,127 mm 0,0 UV-I 182 W/m 5,1 C 6,4 C 9,3 km/h (2 Bft) 99,24 %
10.01.2018 15:00 6,3 C 5,0 C 90 % 1011,5 hPa 0,0 l/m 7,1 km/h (2 Bft) O-NO 0,97 h 0,076 mm 0,0 UV-I 81 W/m 4,8 C 5,6 C 10,4 km/h (2 Bft) 96,80 %
10.01.2018 16:00 4,9 C 5,0 C 94 % 1011,7 hPa 0,0 l/m 4,0 km/h (1 Bft) O 0,17 h 0,051 mm 0,0 UV-I 12 W/m 4,0 C 4,9 C 5,7 km/h (1 Bft) 97,83 %
10.01.2018 17:00 4,1 C 5,0 C 95 % 1011,8 hPa 0,0 l/m 4,2 km/h (1 Bft) O-NO 0,00 h 0,000 mm 0,0 UV-I 0 W/m 3,4 C 4,1 C 6,0 km/h (2 Bft) 97,68 %
10.01.2018 18:00 3,4 C 5,0 C 96 % 1011,9 hPa 0,0 l/m 3,5 km/h (1 Bft) O 0,00 h 0,000 mm 0,0 UV-I 0 W/m 2,8 C 3,4 C 6,0 km/h (2 Bft) 99,52 %
10.01.2018 19:00 2,8 C 5,0 C 97 % 1012,3 hPa 0,0 l/m 6,3 km/h (2 Bft) O-NO 0,00 h 0,000 mm 0,0 UV-I 0 W/m 2,4 C 1,8 C 9,1 km/h (2 Bft) 96,32 %
10.01.2018 20:00 3,2 C 5,0 C 98 % 1012,4 hPa 0,0 l/m 5,3 km/h (1 Bft) O 0,00 h 0,000 mm 0,0 UV-I 0 W/m 2,9 C 2,8 C 8,6 km/h (2 Bft) 98,05 %
10.01.2018 21:00 3,5 C 5,0 C 98 % 1012,6 hPa 0,0 l/m 3,5 km/h (1 Bft) SO 0,00 h 0,000 mm 0,0 UV-I 0 W/m 3,2 C 3,5 C 6,6 km/h (2 Bft) 98,43 %
10.01.2018 22:00 3,7 C 5,0 C 97 % 1012,8 hPa 0,0 l/m 1,8 km/h (1 Bft) SO 0,00 h 0,000 mm 0,0 UV-I 0 W/m 3,3 C 3,7 C 3,4 km/h (1 Bft) 99,13 %
10.01.2018 23:00 3,7 C 5,0 C 97 % 1012,8 hPa 0,0 l/m 1,4 km/h (1 Bft) O-SO 0,00 h 0,000 mm 0,0 UV-I 0 W/m 3,3 C 3,7 C 3,2 km/h (1 Bft) 96,71 %
11.01.2018 00:00 4,2 C 5,0 C 93 % 1012,8 hPa 0,0 l/m 3,2 km/h (1 Bft) O-SO 0,00 h 0,000 mm 0,0 UV-I 0 W/m 3,2 C 4,2 C 5,3 km/h (1 Bft) 94,05 %
11.01.2018 01:00 3,8 C 5,0 C 96 % 1012,9 hPa 0,0 l/m 2,4 km/h (1 Bft) SO 0,00 h 0,000 mm 0,0 UV-I 0 W/m 3,2 C 3,8 C 4,3 km/h (1 Bft) 98,63 %
11.01.2018 02:00 3,7 C 5,0 C 95 % 1013,1 hPa 0,0 l/m 3,5 km/h (1 Bft) O-SO 0,00 h 0,000 mm 0,0 UV-I 0 W/m 3,0 C 3,7 C 5,6 km/h (1 Bft) 98,88 %
11.01.2018 03:00 3,6 C 5,0 C 96 % 1013,1 hPa 0,0 l/m 1,6 km/h (1 Bft) SO 0,00 h 0,000 mm 0,0 UV-I 0 W/m 3,0 C 3,6 C 3,4 km/h (1 Bft) 96,88 %
11.01.2018 04:00 3,5 C 5,0 C 95 % 1013,1 hPa 0,0 l/m 2,2 km/h (1 Bft) O 0,00 h 0,000 mm 0,0 UV-I 0 W/m 2,8 C 3,5 C 4,3 km/h (1 Bft) 97,81 %
11.01.2018 05:00 3,4 C 5,0 C 95 % 1013,3 hPa 0,0 l/m 1,3 km/h (1 Bft) O-NO 0,00 h 0,000 mm 0,0 UV-I 0 W/m 2,7 C 3,4 C 3,1 km/h (1 Bft) 98,89 %
11.01.2018 06:00 3,2 C 5,0 C 96 % 1013,8 hPa 0,0 l/m 2,0 km/h (1 Bft) SO 0,00 h 0,000 mm 0,0 UV-I 0 W/m 2,6 C 3,2 C 4,3 km/h (1 Bft) 98,30 %
11.01.2018 07:00 3,1 C 5,0 C 96 % 1014,3 hPa 0,0 l/m 3,2 km/h (1 Bft) SO 0,00 h 0,000 mm 0,0 UV-I 3 W/m 2,6 C 3,0 C 5,4 km/h (1 Bft) 97,03 %
11.01.2018 08:00 3,0 C 5,0 C 96 % 1014,8 hPa 0,0 l/m 2,2 km/h (1 Bft) O-SO 0,00 h 0,000 mm 0,0 UV-I 6 W/m 2,4 C 3,0 C 4,4 km/h (1 Bft) 97,76 %
11.01.2018 09:00 2,9 C 5,0 C 97 % 1015,2 hPa 0,0 l/m 3,5 km/h (1 Bft) O-SO 0,00 h 0,000 mm 0,0 UV-I 15 W/m 2,5 C 2,8 C 6,0 km/h (2 Bft) 98,88 %
11.01.2018 10:00 2,9 C 5,0 C 97 % 1015,4 hPa 0,0 l/m 4,6 km/h (1 Bft) O-NO 0,00 h 0,000 mm 0,0 UV-I 30 W/m 2,5 C 2,7 C 7,3 km/h (2 Bft) 98,31 %
11.01.2018 11:00 2,8 C 5,0 C 97 % 1015,5 hPa 0,0 l/m 6,6 km/h (2 Bft) NO 0,00 h 0,000 mm 0,0 UV-I 39 W/m 2,4 C 1,9 C 10,5 km/h (2 Bft) 97,19 %
11.01.2018 12:00 2,8 C 5,0 C 97 % 1015,5 hPa 0,0 l/m 6,3 km/h (2 Bft) O-NO 0,00 h 0,025 mm 0,0 UV-I 36 W/m 2,3 C 1,7 C 9,8 km/h (2 Bft) 97,89 %
11.01.2018 13:00 2,7 C 5,0 C 97 % 1015,4 hPa 0,0 l/m 5,7 km/h (1 Bft) O-NO 0,00 h 0,026 mm 0,0 UV-I 30 W/m 2,3 C 2,2 C 9,2 km/h (2 Bft) 99,35 %
11.01.2018 14:00 2,6 C 5,0 C 97 % 1015,8 hPa 0,0 l/m 3,5 km/h (1 Bft) N-NO 0,00 h 0,000 mm 0,0 UV-I 22 W/m 2,2 C 2,5 C 6,4 km/h (2 Bft) 97,84 %
11.01.2018 15:00 2,6 C 5,0 C 97 % 1016,4 hPa 0,0 l/m 1,1 km/h (1 Bft) N 0,00 h 0,000 mm 0,0 UV-I 12 W/m 2,1 C 2,6 C 3,1 km/h (1 Bft) 96,79 %
11.01.2018 16:00 2,7 C 5,0 C 94 % 1017,3 hPa 0,0 l/m 3,2 km/h (1 Bft) NO 0,00 h 0,000 mm 0,0 UV-I 7 W/m 1,8 C 2,7 C 5,5 km/h (1 Bft) 97,71 %
11.01.2018 17:00 2,7 C 5,0 C 95 % 1017,8 hPa 0,0 l/m 1,0 km/h (0 Bft) O-SO 0,00 h 0,000 mm 0,0 UV-I 0 W/m 1,9 C 2,7 C 2,6 km/h (1 Bft) 99,29 %
11.01.2018 18:00 2,7 C 5,0 C 95 % 1018,2 hPa 0,0 l/m 0,4 km/h (0 Bft) O-SO 0,00 h 0,000 mm 0,0 UV-I 0 W/m 2,0 C 2,7 C 1,3 km/h (1 Bft) 98,13 %
11.01.2018 19:00 2,3 C 5,0 C 96 % 1018,4 hPa 0,0 l/m 2,6 km/h (1 Bft) S-SW 0,00 h 0,000 mm 0,0 UV-I 0 W/m 1,7 C 2,3 C 4,2 km/h (1 Bft) 96,88 %
11.01.2018 20:00 1,8 C 5,0 C 97 % 1019,0 hPa 0,0 l/m 0,4 km/h (0 Bft) S-SW 0,00 h 0,000 mm 0,0 UV-I 0 W/m 1,4 C 1,8 C 1,8 km/h (1 Bft) 97,69 %
11.01.2018 21:00 1,1 C 4,8 C 97 % 1019,5 hPa 0,0 l/m 1,2 km/h (1 Bft) W-NW 0,00 h 0,000 mm 0,0 UV-I 0 W/m 0,7 C 1,1 C 2,2 km/h (1 Bft) 99,68 %
11.01.2018 22:00 1,5 C 4,8 C 97 % 1019,9 hPa 0,0 l/m 1,3 km/h (1 Bft) W-NW 0,00 h 0,000 mm 0,0 UV-I 0 W/m 1,1 C 1,5 C 2,9 km/h (1 Bft) 97,05 %
11.01.2018 23:00 1,3 C 4,5 C 97 % 1020,5 hPa 0,0 l/m 1,5 km/h (1 Bft) W-NW 0,00 h 0,000 mm 0,0 UV-I 0 W/m 0,9 C 1,3 C 2,8 km/h (1 Bft) 97,00 %
12.01.2018 00:00 1,1 C 4,4 C 97 % 1020,5 hPa 0,0 l/m 3,2 km/h (1 Bft) S 0,00 h 0,000 mm 0,0 UV-I 0 W/m 0,7 C 1,1 C 4,7 km/h (1 Bft) 98,12 %
12.01.2018 01:00 0,5 C 4,4 C 98 % 1020,9 hPa 0,0 l/m 3,7 km/h (1 Bft) SW 0,00 h 0,000 mm 0,0 UV-I 0 W/m 0,1 C 0,5 C 5,8 km/h (2 Bft) 99,33 %
12.01.2018 02:00 0,3 C 4,4 C 98 % 1021,3 hPa 0,0 l/m 2,2 km/h (1 Bft) W-SW 0,00 h 0,000 mm 0,0 UV-I 0 W/m 0,0 C 0,3 C 3,3 km/h (1 Bft) 97,04 %
12.01.2018 03:00 0,5 C 4,4 C 98 % 1022,1 hPa 0,0 l/m 3,4 km/h (1 Bft) W-SW 0,00 h 0,000 mm 0,0 UV-I 0 W/m 0,2 C 0,5 C 5,8 km/h (2 Bft) 96,60 %
12.01.2018 04:00 0,7 C 4,4 C 98 % 1022,3 hPa 0,0 l/m 4,0 km/h (1 Bft) W-SW 0,00 h 0,000 mm 0,0 UV-I 0 W/m 0,5 C 0,7 C 6,1 km/h (2 Bft) 98,04 %
12.01.2018 05:00 1,0 C 4,4 C 98 % 1022,5 hPa 0,0 l/m 6,2 km/h (2 Bft) W 0,00 h 0,000 mm 0,0 UV-I 0 W/m 0,6 C 0,7 C 9,6 km/h (2 Bft) 98,54 %
12.01.2018 06:00 1,2 C 4,4 C 97 % 1022,7 hPa 0,0 l/m 7,3 km/h (2 Bft) W-SW 0,00 h 0,000 mm 0,0 UV-I 0 W/m 0,8 C 0,2 C 11,8 km/h (2 Bft) 97,68 %
12.01.2018 07:00 1,4 C 4,4 C 96 % 1023,2 hPa 0,0 l/m 5,3 km/h (1 Bft) W 0,00 h 0,000 mm 0,0 UV-I 5 W/m 0,8 C 1,3 C 8,8 km/h (2 Bft) 96,64 %
12.01.2018 08:00 1,6 C 4,4 C 95 % 1023,8 hPa 0,0 l/m 5,2 km/h (1 Bft) W-SW 0,00 h 0,000 mm 0,0 UV-I 19 W/m 0,9 C 1,5 C 8,7 km/h (2 Bft) 99,20 %
12.01.2018 09:00 1,8 C 4,4 C 94 % 1024,3 hPa 0,0 l/m 5,6 km/h (1 Bft) W-SW 0,00 h 0,000 mm 0,0 UV-I 31 W/m 1,0 C 1,7 C 8,8 km/h (2 Bft) 98,04 %
12.01.2018 10:00 2,2 C 4,4 C 94 % 1024,8 hPa 0,0 l/m 6,4 km/h (2 Bft) W-SW 0,00 h 0,025 mm 0,0 UV-I 52 W/m 1,3 C 1,7 C 10,4 km/h (2 Bft) 98,16 %
12.01.2018 11:00 2,6 C 4,4 C 93 % 1024,8 hPa 0,0 l/m 5,2 km/h (1 Bft) W 0,00 h 0,026 mm 0,0 UV-I 80 W/m 1,6 C 2,5 C 9,4 km/h (2 Bft) 95,79 %
12.01.2018 12:00 2,9 C 4,4 C 92 % 1024,6 hPa 0,0 l/m 4,2 km/h (1 Bft) W-SW 0,00 h 0,025 mm 0,0 UV-I 73 W/m 1,7 C 2,9 C 6,9 km/h (2 Bft) 99,17 %
12.01.2018 13:00 3,4 C 4,4 C 90 % 1024,4 hPa 0,0 l/m 3,5 km/h (1 Bft) W-SW 0,00 h 0,026 mm 0,0 UV-I 101 W/m 2,0 C 3,4 C 6,5 km/h (2 Bft) 98,12 %
12.01.2018 14:00 3,6 C 4,4 C 90 % 1024,6 hPa 0,0 l/m 2,1 km/h (1 Bft) W 0,00 h 0,050 mm 0,0 UV-I 68 W/m 2,0 C 3,6 C 4,3 km/h (1 Bft) 99,10 %
12.01.2018 15:00 3,6 C 4,4 C 90 % 1025,1 hPa 0,0 l/m 0,2 km/h (0 Bft) W-NW 0,00 h 0,026 mm 0,0 UV-I 32 W/m 2,1 C 3,6 C 0,5 km/h (0 Bft) 95,79 %
12.01.2018 16:00 3,5 C 4,4 C 91 % 1025,6 hPa 0,0 l/m 0,2 km/h (0 Bft) W-NW 0,00 h 0,025 mm 0,0 UV-I 8 W/m 2,2 C 3,5 C 0,5 km/h (0 Bft) 98,68 %
12.01.2018 17:00 3,2 C 4,4 C 93 % 1025,7 hPa 0,0 l/m 0,3 km/h (0 Bft) W-NW 0,00 h 0,000 mm 0,0 UV-I 0 W/m 2,1 C 3,2 C 0,9 km/h (0 Bft) 97,88 %
12.01.2018 18:00 3,0 C 4,4 C 93 % 1025,8 hPa 0,0 l/m 0,2 km/h (0 Bft) W-NW 0,00 h 0,000 mm 0,0 UV-I 0 W/m 2,0 C 3,0 C 0,8 km/h (0 Bft) 99,07 %
12.01.2018 19:00 2,9 C 4,4 C 94 % 1026,1 hPa 0,0 l/m 0,2 km/h (0 Bft) W-NW 0,00 h 0,000 mm 0,0 UV-I 0 W/m 2,0 C 2,9 C 0,4 km/h (0 Bft) 95,70 %
12.01.2018 20:00 2,9 C 4,4 C 94 % 1026,3 hPa 0,0 l/m 1,5 km/h (1 Bft) W-NW 0,00 h 0,000 mm 0,0 UV-I 0 W/m 2,0 C 2,9 C 2,5 km/h (1 Bft) 98,85 %
12.01.2018 21:00 2,8 C 4,4 C 95 % 1026,4 hPa 0,0 l/m 0,3 km/h (0 Bft) W-NW 0,00 h 0,000 mm 0,0 UV-I 0 W/m 2,0 C 2,8 C 0,6 km/h (0 Bft) 97,71 %
12.01.2018 22:00 2,7 C 4,4 C 96 % 1026,5 hPa 0,0 l/m 0,5 km/h (0 Bft) O 0,00 h 0,000 mm 0,0 UV-I 0 W/m 2,1 C 2,7 C 0,9 km/h (0 Bft) 98,88 %
12.01.2018 23:00 2,8 C 4,4 C 95 % 1026,4 hPa 0,0 l/m 4,3 km/h (1 Bft) O-SO 0,00 h 0,000 mm 0,0 UV-I 0 W/m 2,1 C 2,8 C 6,4 km/h (2 Bft) 95,53 %
13.01.2018 00:00 2,8 C 4,4 C 95 % 1026,0 hPa 0,0 l/m 2,9 km/h (1 Bft) O 0,00 h 0,000 mm 0,0 UV-I 0 W/m 2,0 C 2,8 C 4,8 km/h (1 Bft) 98,92 %
13.01.2018 01:00 2,6 C 4,4 C 96 % 1025,8 hPa 0,0 l/m 3,3 km/h (1 Bft) O-NO 0,00 h 0,000 mm 0,0 UV-I 0 W/m 2,0 C 2,6 C 5,2 km/h (1 Bft) 98,13 %
13.01.2018 02:00 2,7 C 4,4 C 96 % 1025,9 hPa 0,0 l/m 11,0 km/h (2 Bft) O-NO 0,00 h 0,000 mm 0,0 UV-I 0 W/m 2,1 C -1,0 C 15,5 km/h (3 Bft) 99,30 %
13.01.2018 03:00 2,4 C 4,4 C 97 % 1025,8 hPa 0,0 l/m 17,2 km/h (3 Bft) O-NO 0,00 h 0,000 mm 0,0 UV-I 0 W/m 1,9 C -5,2 C 23,8 km/h (4 Bft) 95,65 %
13.01.2018 04:00 2,1 C 4,4 C 95 % 1025,6 hPa 0,0 l/m 17,3 km/h (3 Bft) O-NO 0,00 h 0,000 mm 0,0 UV-I 0 W/m 1,5 C -5,6 C 23,5 km/h (4 Bft) 98,86 %
13.01.2018 05:00 2,0 C 4,4 C 94 % 1025,4 hPa 0,0 l/m 15,9 km/h (3 Bft) NO 0,00 h 0,000 mm 0,0 UV-I 0 W/m 1,1 C -5,1 C 22,8 km/h (4 Bft) 98,32 %
13.01.2018 06:00 1,7 C 4,4 C 94 % 1025,5 hPa 0,0 l/m 14,6 km/h (3 Bft) O-NO 0,00 h 0,000 mm 0,0 UV-I 0 W/m 0,9 C -4,6 C 20,1 km/h (4 Bft) 99,25 %
13.01.2018 07:00 1,4 C 4,4 C 94 % 1025,5 hPa 0,0 l/m 18,8 km/h (3 Bft) O-NO 0,00 h 0,000 mm 0,0 UV-I 5 W/m 0,5 C -7,2 C 25,7 km/h (4 Bft) 96,15 %
13.01.2018 08:00 1,3 C 4,4 C 93 % 1025,5 hPa 0,0 l/m 17,0 km/h (3 Bft) NO 0,00 h 0,000 mm 0,0 UV-I 22 W/m 0,3 C -6,5 C 23,5 km/h (4 Bft) 98,34 %
13.01.2018 09:00 1,2 C 4,4 C 92 % 1025,8 hPa 0,0 l/m 19,1 km/h (3 Bft) O-NO 0,00 h 0,025 mm 0,0 UV-I 61 W/m 0,1 C -7,6 C 26,5 km/h (4 Bft) 98,57 %
13.01.2018 10:00 1,2 C 4,4 C 92 % 1025,8 hPa 0,0 l/m 19,3 km/h (3 Bft) O-NO 0,00 h 0,026 mm 0,0 UV-I 103 W/m -0,0 C -7,7 C 27,3 km/h (4 Bft) 98,64 %
13.01.2018 11:00 1,1 C 4,4 C 92 % 1025,5 hPa 0,0 l/m 20,0 km/h (4 Bft) O-NO 0,00 h 0,051 mm 0,0 UV-I 70 W/m -0,1 C -8,2 C 27,7 km/h (4 Bft) 96,59 %
13.01.2018 12:00 1,0 C 4,4 C 91 % 1025,2 hPa 0,0 l/m 17,5 km/h (3 Bft) O-NO 0,00 h 0,025 mm 0,0 UV-I 53 W/m -0,2 C -7,0 C 24,2 km/h (4 Bft) 97,68 %
13.01.2018 13:00 0,9 C 4,4 C 91 % 1024,6 hPa 0,0 l/m 18,3 km/h (3 Bft) O-NO 0,00 h 0,025 mm 0,0 UV-I 65 W/m -0,4 C -7,6 C 25,3 km/h (4 Bft) 98,31 %
13.01.2018 14:00 0,8 C 4,4 C 91 % 1024,4 hPa 0,0 l/m 16,6 km/h (3 Bft) O-NO 0,00 h 0,026 mm 0,0 UV-I 54 W/m -0,5 C -6,8 C 22,7 km/h (4 Bft) 98,68 %
13.01.2018 15:00 0,7 C 4,4 C 91 % 1024,3 hPa 0,0 l/m 15,4 km/h (3 Bft) O-NO 0,00 h 0,025 mm 0,0 UV-I 25 W/m -0,7 C -6,3 C 21,6 km/h (4 Bft) 96,91 %
13.01.2018 16:00 0,3 C 4,4 C 91 % 1024,2 hPa 0,0 l/m 15,9 km/h (3 Bft) O-NO 0,00 h 0,026 mm 0,0 UV-I 7 W/m -0,9 C -7,1 C 21,6 km/h (4 Bft) 97,85 %
13.01.2018 17:00 0,0 C 4,4 C 92 % 1024,3 hPa 0,0 l/m 17,5 km/h (3 Bft) O-NO 0,00 h 0,000 mm 0,0 UV-I 0 W/m -1,1 C -8,3 C 24,3 km/h (4 Bft) 98,88 %
13.01.2018 18:00 0,1 C 4,4 C 90 % 1024,3 hPa 0,0 l/m 17,3 km/h (3 Bft) NO 0,00 h 0,000 mm 0,0 UV-I 0 W/m -1,4 C -8,1 C 25,1 km/h (4 Bft) 98,52 %
13.01.2018 19:00 0,1 C 4,4 C 89 % 1024,1 hPa 0,0 l/m 18,3 km/h (3 Bft) O-NO 0,00 h 0,025 mm 0,0 UV-I 0 W/m -1,4 C -8,5 C 26,4 km/h (4 Bft) 97,45 %
13.01.2018 20:00 0,2 C 4,4 C 91 % 1023,8 hPa 0,0 l/m 20,4 km/h (4 Bft) O-NO 0,00 h 0,025 mm 0,0 UV-I 0 W/m -1,2 C -9,6 C 28,6 km/h (4 Bft) 97,25 %
13.01.2018 21:00 0,2 C 4,4 C 92 % 1023,4 hPa 0,0 l/m 18,2 km/h (3 Bft) O-NO 0,00 h 0,026 mm 0,0 UV-I 0 W/m -1,0 C -8,5 C 25,7 km/h (4 Bft) 98,85 %
13.01.2018 22:00 0,2 C 4,3 C 94 % 1023,2 hPa 0,0 l/m 15,4 km/h (3 Bft) O-NO 0,00 h 0,000 mm 0,0 UV-I 0 W/m -0,6 C -6,9 C 21,2 km/h (4 Bft) 97,97 %
13.01.2018 23:00 0,6 C 4,0 C 94 % 1022,9 hPa 0,0 l/m 12,9 km/h (3 Bft) O-NO 0,00 h 0,000 mm 0,0 UV-I 0 W/m -0,3 C -4,9 C 18,4 km/h (3 Bft) 97,61 %
14.01.2018 00:00 0,9 C 3,9 C 92 % 1022,2 hPa 0,0 l/m 15,1 km/h (3 Bft) O-NO 0,00 h 0,000 mm 0,0 UV-I 0 W/m -0,2 C -5,8 C 22,2 km/h (4 Bft) 96,95 %
14.01.2018 01:00 1,0 C 3,9 C 91 % 1021,8 hPa 0,0 l/m 19,1 km/h (3 Bft) O-NO 0,00 h 0,000 mm 0,0 UV-I 0 W/m -0,3 C -7,8 C 27,3 km/h (4 Bft) 99,15 %
14.01.2018 02:00 0,9 C 3,9 C 90 % 1021,8 hPa 0,0 l/m 18,2 km/h (3 Bft) O-NO 0,00 h 0,025 mm 0,0 UV-I 0 W/m -0,5 C -7,5 C 25,1 km/h (4 Bft) 98,18 %
14.01.2018 03:00 0,8 C 3,9 C 90 % 1021,4 hPa 0,0 l/m 21,0 km/h (4 Bft) O-NO 0,00 h 0,026 mm 0,0 UV-I 0 W/m -0,7 C -9,0 C 29,9 km/h (5 Bft) 98,04 %
14.01.2018 04:00 0,7 C 3,9 C 90 % 1021,2 hPa 0,0 l/m 20,4 km/h (4 Bft) O-NO 0,00 h 0,025 mm 0,0 UV-I 0 W/m -0,8 C -8,9 C 28,9 km/h (5 Bft) 96,18 %
14.01.2018 05:00 0,6 C 3,9 C 90 % 1021,2 hPa 0,0 l/m 22,5 km/h (4 Bft) O-NO 0,00 h 0,026 mm 0,0 UV-I 0 W/m -0,9 C -9,9 C 31,0 km/h (5 Bft) 98,85 %
14.01.2018 06:00 0,4 C 3,9 C 91 % 1021,3 hPa 0,0 l/m 23,7 km/h (4 Bft) O-NO 0,00 h 0,025 mm 0,0 UV-I 0 W/m -1,0 C -10,6 C 32,4 km/h (5 Bft) 98,26 %
14.01.2018 07:00 0,3 C 3,9 C 91 % 1021,3 hPa 0,0 l/m 23,2 km/h (4 Bft) O-NO 0,00 h 0,025 mm 0,0 UV-I 1 W/m -1,0 C -10,5 C 32,4 km/h (5 Bft) 98,49 %
14.01.2018 08:00 0,2 C 3,9 C 91 % 1021,4 hPa 0,0 l/m 23,3 km/h (4 Bft) O-NO 0,00 h 0,026 mm 0,0 UV-I 7 W/m -1,1 C -10,8 C 32,1 km/h (5 Bft) 95,71 %
14.01.2018 09:00 0,2 C 3,9 C 92 % 1021,7 hPa 0,0 l/m 20,9 km/h (4 Bft) O-NO 0,00 h 0,025 mm 0,0 UV-I 16 W/m -1,0 C -9,8 C 29,1 km/h (5 Bft) 98,90 %
14.01.2018 10:00 0,1 C 3,9 C 93 % 1021,8 hPa 0,0 l/m 20,3 km/h (4 Bft) O-NO 0,00 h 0,026 mm 0,0 UV-I 45 W/m -0,9 C -9,6 C 28,6 km/h (4 Bft) 97,43 %
14.01.2018 11:00 0,1 C 3,9 C 93 % 1021,6 hPa 0,0 l/m 21,3 km/h (4 Bft) O-NO 0,00 h 0,025 mm 0,0 UV-I 65 W/m -0,9 C -10,0 C 29,9 km/h (5 Bft) 98,88 %
14.01.2018 12:00 0,3 C 3,9 C 93 % 1021,3 hPa 0,0 l/m 19,3 km/h (3 Bft) O-NO 0,00 h 0,025 mm 0,0 UV-I 82 W/m -0,8 C -8,9 C 27,1 km/h (4 Bft) 95,76 %
14.01.2018 13:00 0,5 C 3,9 C 92 % 1021,2 hPa 0,0 l/m 19,9 km/h (4 Bft) O-NO 0,00 h 0,026 mm 0,0 UV-I 74 W/m -0,7 C -8,9 C 27,8 km/h (4 Bft) 99,17 %
14.01.2018 14:00 0,6 C 3,9 C 90 % 1021,2 hPa 0,0 l/m 21,5 km/h (4 Bft) O-NO 0,00 h 0,025 mm 0,0 UV-I 69 W/m -0,9 C -9,5 C 30,7 km/h (5 Bft) 97,75 %
14.01.2018 15:00 0,4 C 3,9 C 88 % 1021,3 hPa 0,0 l/m 22,6 km/h (4 Bft) O-NO 0,00 h 0,051 mm 0,0 UV-I 43 W/m -1,3 C -10,1 C 32,0 km/h (5 Bft) 98,97 %
14.01.2018 16:00 0,2 C 3,9 C 88 % 1021,5 hPa 0,0 l/m 20,3 km/h (4 Bft) O-NO 0,07 h 0,025 mm 0,0 UV-I 11 W/m -1,5 C -9,4 C 28,6 km/h (4 Bft) 95,49 %
14.01.2018 17:00 -0,1 C 3,7 C 88 % 1021,8 hPa 0,0 l/m 15,5 km/h (3 Bft) O-NO 0,00 h 0,026 mm 0,0 UV-I 0 W/m -1,9 C -7,3 C 22,3 km/h (4 Bft) 98,87 %
14.01.2018 18:00 -0,4 C 3,6 C 89 % 1022,1 hPa 0,0 l/m 15,0 km/h (3 Bft) O-NO 0,00 h 0,025 mm 0,0 UV-I 0 W/m -2,0 C -7,4 C 21,1 km/h (4 Bft) 97,82 %
14.01.2018 19:00 -0,6 C 3,4 C 89 % 1022,6 hPa 0,0 l/m 15,2 km/h (3 Bft) O-NO 0,00 h 0,026 mm 0,0 UV-I 0 W/m -2,2 C -7,8 C 21,8 km/h (4 Bft) 98,61 %
14.01.2018 20:00 -0,7 C 3,3 C 89 % 1022,8 hPa 0,0 l/m 17,2 km/h (3 Bft) O-NO 0,00 h 0,025 mm 0,0 UV-I 0 W/m -2,3 C -9,0 C 24,4 km/h (4 Bft) 95,80 %
14.01.2018 21:00 -0,7 C 3,3 C 90 % 1023,1 hPa 0,0 l/m 14,1 km/h (3 Bft) O-NO 0,00 h 0,025 mm 0,0 UV-I 0 W/m -2,2 C -7,2 C 20,0 km/h (4 Bft) 98,94 %
14.01.2018 22:00 -0,8 C 3,3 C 90 % 1023,4 hPa 0,0 l/m 13,2 km/h (3 Bft) O-NO 0,00 h 0,000 mm 0,0 UV-I 0 W/m -2,3 C -6,8 C 19,4 km/h (3 Bft) 96,68 %
14.01.2018 23:00 -1,1 C 3,3 C 90 % 1023,5 hPa 0,0 l/m 13,1 km/h (3 Bft) O-NO 0,00 h 0,000 mm 0,0 UV-I 0 W/m -2,5 C -7,0 C 18,7 km/h (3 Bft) 98,24 %
Min-Datum _ 14.01.18 14.01.18 09.01.18 10.01.18 - 08.01.18 - - - - - 14.01.18 14.01.18 08.01.18 08.01.18
_ Min-Zeit 23:20 17:44 13:36 14:10 - 22:33 - - - - - 23:20 06:54 22:33 22:33
Minimum _ -1,1 C 3,3 C 72 % 1011,3 hPa - 0,0 km/h (0 Bft) - - - - - -2,5 C -13,3 C 0,0 km/h (0 Bft) 0,00 %
Max-Datum _ 09.01.18 10.01.18 10.01.18 12.01.18 08.01.18 09.01.18 - 09.01.18 09.01.18 09.01.18 09.01.18 09.01.18 09.01.18 09.01.18 08.01.18
_ Max-Zeit 13:33 10:24 20:14 22:30 00:00 06:44 - 08:05 13:02 12:38 12:44 13:26 16:10 07:14 00:02
Maximum _ 11,8 C 5,0 C 98 % 1026,6 hPa 0,0 l/m 35,8 km/h
O-NO (5 Bft)
- 0,05 h 0,178 mm 0,6 UV-I 392 W/m 7,1 C 9,3 C 51,5 km/h
O-NO (7 Bft)
100,00 %
Durchschnitt _ 3,2 C 4,4 C 93 % 1019,7 hPa #0,0 l/m 11,6 km/h (2 Bft) O-NO #7:24 h #2,868 mm 0,4 UV-I 60 W/m 2,2 C -1,1 C 16,5 km/h (3 Bft) 97,70 %